An Ninh, Viet Nam

12:42 AM ICT on December 04, 2016 (GMT +0700)
Tra Noc | | Change Station

Elev 7 ft 10.09 °N, 105.71 °E | Updated 5 hours ago

Scattered Clouds
Scattered Clouds
82 °F
Feels Like 88 °F
N
10
Wind Variable Wind from East

Today
High -- | Low -- °F
--% Chance of Precip.
Yesterday
High -- | Low -- °F
Precip. -- in
Pressure 29.86 in
Visibility 6.2 miles
Clouds Few 1300 ft
Scattered Clouds 4000 ft
Heat Index 88 °F
Dew Point 73 °F
Humidity 74%
Rainfall 0.00 in
Snow Depth Not available.
5:58 AM 5:34 PM
Waxing Crescent, 16% visible
METAR VVCT 031230Z 09009KT 9999 FEW013 SCT040 28/23 Q1011 NOSIG
Pressure 29.86 in
Visibility 6.2 miles
Clouds Few 1300 ft
Scattered Clouds 4000 ft
Heat Index 88 °F
Dew Point 73 °F
Humidity 74%
Rainfall 0.00 in
Snow Depth Not available.
5:58 AM 5:34 PM
Waxing Crescent, 16% visible
METAR VVCT 031230Z 09009KT 9999 FEW013 SCT040 28/23 Q1011 NOSIG

10-Day Weather Forecast

No radar image for this location.
×

Almanac

Astronomy

Dec. 04, 2016 Rise Set
Actual Time
Civil Twilight
Nautical Twilight
Astronomical Twilight
Moon
Length of Visible Light
Length of Day
Tomorrow will be .
, % of the Moon is Illuminated

Today's Extremes

Country Highs Country Lows

Community

WunderPhotos

Upload Photos

1,955,455 photos uploaded!

WunderBlog® & News

Nearby

Air Quality

  Air Quality AQ Index Pollutant
Not available.

Snow Depth

Station Depth Elevation

Earthquake Activity

City Distance Mag. Time & Date
Minimum magnitude displayed is 2.5.

Coastal Water Temperatures

Place Temperature

Stations

Nearby Weather Stations

Station Location Temp. Windchill Dew Point Humidity Wind Precip. Elev Updated Type